Time;durP1;ratioP1;P1;durP2;ratioP2;P2;SDS_P1;SDS_P2;PMS_P1;PMS_P2;Temp;Humidity;BMP_temperature;BMP_pressure;BME280_temperature;BME280_humidity;BME280_pressure;Samples;Min_cycle;Max_cycle;Signal;HPM_P1;HPM_P2
2023/03/24 00:02:23;;;;;;;4.63;3.73;;;12.80;99.90;;;;;;5025345;28;20198;-69
2023/03/24 00:04:51;;;;;;;4.00;3.60;;;12.80;99.90;;;;;;5029845;28;20178;-69
2023/03/24 00:07:18;;;;;;;3.83;3.53;;;12.80;99.90;;;;;;5032485;28;20182;-68
2023/03/24 00:09:44;;;;;;;3.73;3.43;;;12.80;99.90;;;;;;5032997;28;20877;-69
2023/03/24 00:12:13;;;;;;;3.40;3.10;;;12.80;99.90;;;;;;5032950;28;20453;-69
2023/03/24 00:14:39;;;;;;;3.50;3.20;;;12.70;99.90;;;;;;5032437;28;20981;-67
2023/03/24 00:17:08;;;;;;;4.30;3.93;;;12.70;99.90;;;;;;5033981;28;20459;-69
2023/03/24 00:19:37;;;;;;;4.40;3.40;;;12.80;99.90;;;;;;5031414;28;20440;-70
2023/03/24 00:22:03;;;;;;;3.77;3.40;;;12.70;99.90;;;;;;5034991;28;20468;-69
2023/03/24 00:24:29;;;;;;;4.17;3.67;;;12.70;99.90;;;;;;5015838;28;20422;-69
2023/03/24 00:26:56;;;;;;;4.40;3.40;;;12.70;99.90;;;;;;5031807;28;20800;-68
2023/03/24 00:29:23;;;;;;;4.33;3.97;;;12.80;99.90;;;;;;5034346;28;20201;-69
2023/03/24 00:31:51;;;;;;;3.33;3.03;;;12.80;99.90;;;;;;5049068;28;20448;-68
2023/03/24 00:34:20;;;;;;;3.70;3.23;;;12.80;99.90;;;;;;5055118;28;20451;-69
2023/03/24 00:36:47;;;;;;;3.73;3.43;;;12.90;99.90;;;;;;5045680;28;20461;-68
2023/03/24 00:39:16;;;;;;;3.33;3.13;;;13.00;99.90;;;;;;5022496;28;20433;-69
2023/03/24 00:41:43;;;;;;;2.90;2.70;;;13.00;99.90;;;;;;5030522;28;20491;-69
2023/03/24 00:44:16;;;;;;;3.70;3.40;;;13.10;99.90;;;;;;5029246;28;20946;-69
2023/03/24 00:46:54;;;;;;;3.60;3.30;;;13.10;99.90;;;;;;5026459;28;20452;-69
2023/03/24 00:49:43;;;;;;;5.83;3.87;;;13.20;99.90;;;;;;5025587;28;20525;-69
2023/03/24 00:52:16;;;;;;;3.77;3.33;;;13.10;99.90;;;;;;5023554;28;20483;-69
2023/03/24 00:54:44;;;;;;;3.77;3.47;;;13.30;99.90;;;;;;5023660;28;20441;-69
2023/03/24 00:57:11;;;;;;;3.63;3.33;;;13.30;99.90;;;;;;5022627;28;20961;-69
2023/03/24 00:59:41;;;;;;;3.53;3.23;;;13.30;99.90;;;;;;5027701;28;21045;-69
2023/03/24 01:02:10;;;;;;;3.50;3.20;;;13.30;99.90;;;;;;5030840;28;20471;-69
2023/03/24 01:04:37;;;;;;;3.97;3.57;;;13.30;99.90;;;;;;5027205;28;20436;-68
2023/03/24 01:07:03;;;;;;;3.13;2.83;;;13.30;99.90;;;;;;5031953;28;20875;-68
2023/03/24 01:09:28;;;;;;;7.33;3.27;;;13.30;99.90;;;;;;5030026;28;20436;-69
2023/03/24 01:11:54;;;;;;;4.57;3.10;;;13.30;99.90;;;;;;5034245;28;20228;-69
2023/03/24 01:14:20;;;;;;;3.70;3.40;;;13.30;99.90;;;;;;5032955;28;20186;-69
2023/03/24 01:16:45;;;;;;;4.37;3.50;;;13.30;99.90;;;;;;5032957;28;20859;-68
2023/03/24 01:19:11;;;;;;;4.87;3.97;;;13.30;99.90;;;;;;5025572;28;20210;-69
2023/03/24 01:21:38;;;;;;;3.27;2.97;;;13.30;99.90;;;;;;5031071;28;20206;-69
2023/03/24 01:24:04;;;;;;;3.53;3.17;;;13.10;99.90;;;;;;5032828;28;20563;-68
2023/03/24 01:26:30;;;;;;;5.67;3.23;;;13.10;99.90;;;;;;5030260;28;20533;-69
2023/03/24 01:28:56;;;;;;;3.60;3.07;;;13.10;99.90;;;;;;5032410;28;20499;-69
2023/03/24 01:31:22;;;;;;;4.17;3.83;;;13.10;99.90;;;;;;5031081;28;20832;-69
2023/03/24 01:33:48;;;;;;;4.20;2.87;;;13.20;99.90;;;;;;5032656;28;20543;-69
2023/03/24 01:36:13;;;;;;;4.73;3.60;;;13.20;99.90;;;;;;5032257;28;20241;-69
2023/03/24 01:38:39;;;;;;;3.20;3.00;;;13.20;99.90;;;;;;5032268;28;20209;-69
2023/03/24 01:41:06;;;;;;;3.53;3.23;;;13.20;99.90;;;;;;5032437;28;20282;-69
2023/03/24 01:43:33;;;;;;;5.63;5.03;;;13.20;99.90;;;;;;5029694;28;20285;-69
2023/03/24 01:46:11;;;;;;;5.30;3.40;;;13.20;99.90;;;;;;5031815;28;20515;-69
2023/03/24 01:48:56;;;;;;;3.40;2.80;;;13.20;99.90;;;;;;5030664;28;20444;-69
2023/03/24 01:51:40;;;;;;;3.70;3.40;;;13.20;99.90;;;;;;5030088;28;20476;-69
2023/03/24 01:54:29;;;;;;;4.00;3.37;;;13.20;99.90;;;;;;5029538;28;20448;-69
2023/03/24 01:57:12;;;;;;;4.17;3.63;;;13.10;99.90;;;;;;5029737;28;20472;-69
2023/03/24 01:59:41;;;;;;;3.37;3.07;;;13.10;99.90;;;;;;5028092;28;20547;-69
2023/03/24 02:02:08;;;;;;;4.00;3.63;;;13.00;99.90;;;;;;5030415;28;20540;-68
2023/03/24 02:04:42;;;;;;;3.00;2.70;;;13.00;99.90;;;;;;5030515;28;20441;-70
2023/03/24 02:07:17;;;;;;;3.00;2.80;;;13.00;99.90;;;;;;5027896;28;20464;-69
2023/03/24 02:09:43;;;;;;;3.73;3.37;;;13.00;99.90;;;;;;5027793;28;20453;-69
2023/03/24 02:12:09;;;;;;;3.53;3.10;;;13.00;99.90;;;;;;5025280;28;20467;-69
2023/03/24 02:14:35;;;;;;;5.73;3.73;;;13.10;99.90;;;;;;5027446;28;20441;-70
2023/03/24 02:17:36;;;;;;;2.70;2.50;;;13.10;99.90;;;;;;5032595;28;20233;-69
2023/03/24 02:20:13;;;;;;;3.63;2.77;;;13.20;99.90;;;;;;5031851;28;20267;-70
2023/03/24 02:23:13;;;;;;;2.87;2.60;;;13.20;99.90;;;;;;5032472;28;20973;-70
2023/03/24 02:26:27;;;;;;;4.70;3.10;;;13.30;99.90;;;;;;5032500;28;20439;-69
2023/03/24 02:29:02;;;;;;;3.77;3.37;;;13.30;99.90;;;;;;5010063;28;20473;-68
2023/03/24 02:31:49;;;;;;;2.63;2.43;;;13.40;99.90;;;;;;5010510;28;20453;-70
2023/03/24 02:34:48;;;;;;;4.07;3.10;;;13.30;99.90;;;;;;5027184;28;20490;-69
2023/03/24 02:37:27;;;;;;;3.10;2.80;;;13.30;99.90;;;;;;5032886;28;20417;-69
2023/03/24 02:40:23;;;;;;;2.77;2.57;;;13.40;99.90;;;;;;5030907;28;20510;-68
2023/03/24 02:43:04;;;;;;;3.20;2.90;;;13.40;99.90;;;;;;5025709;28;20890;-69
2023/03/24 02:45:44;;;;;;;3.10;2.90;;;13.40;99.90;;;;;;5027293;28;20461;-69
2023/03/24 02:48:16;;;;;;;2.70;2.50;;;13.40;99.90;;;;;;5028610;28;20484;-69
2023/03/24 02:51:07;;;;;;;5.50;2.77;;;13.40;99.90;;;;;;5030369;28;20992;-69
2023/03/24 02:53:44;;;;;;;2.63;2.43;;;13.40;99.90;;;;;;5029198;28;20437;-70
2023/03/24 02:56:28;;;;;;;3.00;2.77;;;13.40;99.90;;;;;;5027986;28;20472;-70
2023/03/24 02:59:06;;;;;;;2.60;2.40;;;13.50;99.90;;;;;;5029256;28;20466;-70
2023/03/24 03:01:39;;;;;;;3.93;2.80;;;13.50;99.90;;;;;;5027142;28;20467;-70
2023/03/24 03:04:13;;;;;;;3.27;2.70;;;13.60;99.90;;;;;;5029630;28;20451;-68
2023/03/24 03:06:42;;;;;;;3.10;2.80;;;13.60;99.90;;;;;;5028545;28;20805;-68
2023/03/24 03:09:15;;;;;;;3.13;2.77;;;13.60;99.90;;;;;;5031018;28;20937;-69
2023/03/24 03:11:46;;;;;;;3.23;2.63;;;13.60;99.90;;;;;;5026735;28;20995;-69
2023/03/24 03:14:24;;;;;;;2.93;2.60;;;13.60;99.90;;;;;;5030417;28;20774;-69
2023/03/24 03:16:59;;;;;;;3.07;2.77;;;13.70;99.90;;;;;;5024919;28;20448;-69
2023/03/24 03:19:33;;;;;;;3.13;2.90;;;13.70;99.90;;;;;;5026418;28;20475;-70
2023/03/24 03:22:03;;;;;;;2.73;2.53;;;13.70;99.90;;;;;;5024339;28;20460;-69
2023/03/24 03:24:36;;;;;;;2.90;2.53;;;13.70;99.90;;;;;;5021907;28;20437;-69
2023/03/24 03:27:07;;;;;;;2.73;2.53;;;13.60;99.90;;;;;;5029197;28;20873;-69
2023/03/24 03:29:38;;;;;;;3.03;2.73;;;13.70;99.90;;;;;;5030048;28;20451;-69
2023/03/24 03:32:08;;;;;;;2.83;2.43;;;13.70;99.90;;;;;;5025832;28;20465;-70
2023/03/24 03:34:39;;;;;;;4.80;2.87;;;13.70;99.90;;;;;;5027421;28;20444;-69
2023/03/24 03:37:08;;;;;;;2.73;2.53;;;13.70;99.90;;;;;;5026822;28;20441;-69
2023/03/24 03:39:39;;;;;;;2.70;2.50;;;13.70;99.90;;;;;;5028920;28;22288;-69
2023/03/24 03:42:05;;;;;;;2.57;2.37;;;13.70;99.90;;;;;;5029202;28;20514;-70
2023/03/24 03:44:31;;;;;;;4.90;2.70;;;13.70;99.90;;;;;;5027573;28;20851;-70
2023/03/24 03:46:57;;;;;;;3.03;2.83;;;13.70;99.90;;;;;;5029102;28;20525;-70
2023/03/24 03:49:24;;;;;;;5.10;2.10;;;13.70;99.90;;;;;;5023757;28;20209;-70
2023/03/24 03:51:51;;;;;;;5.23;3.00;;;13.70;99.90;;;;;;5044391;23;20305;-73
2023/03/24 03:54:17;;;;;;;4.10;2.80;;;13.70;99.90;;;;;;5010246;28;20448;-73
2023/03/24 03:56:43;;;;;;;4.40;3.37;;;13.70;99.90;;;;;;5008309;28;20491;-71
2023/03/24 03:59:22;;;;;;;3.00;2.80;;;13.70;99.90;;;;;;5009256;28;20487;-73
2023/03/24 04:01:48;;;;;;;4.40;2.60;;;13.80;99.90;;;;;;5000661;28;20458;-73
2023/03/24 04:04:16;;;;;;;5.00;3.00;;;13.80;99.90;;;;;;4990138;28;20449;-73
2023/03/24 04:06:57;;;;;;;4.33;2.57;;;13.80;99.90;;;;;;4985247;28;20172;-71
2023/03/24 04:10:06;;;;;;;2.90;2.70;;;13.80;99.90;;;;;;4989689;28;20443;-72
2023/03/24 04:12:52;;;;;;;4.73;2.90;;;13.90;99.90;;;;;;4989759;28;20455;-72
2023/03/24 04:15:44;;;;;;;3.30;2.83;;;13.90;99.90;;;;;;4992373;28;20430;-72
2023/03/24 04:18:23;;;;;;;3.07;2.60;;;13.90;99.90;;;;;;4991349;28;20489;-72
2023/03/24 04:21:15;;;;;;;5.40;2.57;;;13.90;99.90;;;;;;4992200;28;20461;-71
2023/03/24 04:24:11;;;;;;;2.50;2.30;;;13.90;99.90;;;;;;4992403;28;20419;-72
2023/03/24 04:26:53;;;;;;;2.60;2.40;;;13.90;99.90;;;;;;4992206;28;20418;-72
2023/03/24 04:29:24;;;;;;;2.97;2.60;;;13.90;99.90;;;;;;4972142;28;20422;-72
2023/03/24 04:32:13;;;;;;;2.67;2.47;;;14.00;99.90;;;;;;4981058;28;20553;-72
2023/03/24 04:34:43;;;;;;;3.03;2.67;;;14.00;99.90;;;;;;4985849;28;20425;-72
2023/03/24 04:37:13;;;;;;;5.03;3.03;;;14.10;99.90;;;;;;4991992;28;20506;-72
2023/03/24 04:39:42;;;;;;;2.80;2.60;;;14.00;99.90;;;;;;4991219;28;20454;-72
2023/03/24 04:42:18;;;;;;;3.00;2.80;;;14.00;99.90;;;;;;4990763;28;20467;-72
2023/03/24 04:44:44;;;;;;;2.47;2.27;;;14.00;99.90;;;;;;4988683;28;20821;-72
2023/03/24 04:47:11;;;;;;;4.13;2.67;;;14.00;99.90;;;;;;4989225;28;20530;-72
2023/03/24 04:49:38;;;;;;;3.50;2.83;;;14.00;99.90;;;;;;4990630;28;21032;-72
2023/03/24 04:52:06;;;;;;;4.57;3.83;;;14.00;99.90;;;;;;4992564;28;20997;-72
2023/03/24 04:54:32;;;;;;;3.87;2.67;;;14.00;99.90;;;;;;4991119;28;20461;-72
2023/03/24 04:57:00;;;;;;;2.73;2.53;;;14.00;99.90;;;;;;4993891;28;20502;-72
2023/03/24 04:59:27;;;;;;;2.77;2.30;;;14.10;99.90;;;;;;4988560;28;20469;-72
2023/03/24 05:01:52;;;;;;;2.23;2.00;;;14.20;99.90;;;;;;4990591;28;20465;-72
2023/03/24 05:04:20;;;;;;;2.50;2.30;;;14.20;99.90;;;;;;4992088;28;20434;-72
2023/03/24 05:06:46;;;;;;;5.47;2.47;;;14.20;99.90;;;;;;4988648;28;20175;-72
2023/03/24 05:09:16;;;;;;;2.53;2.33;;;14.30;99.90;;;;;;4991687;28;20801;-72
2023/03/24 05:11:43;;;;;;;2.60;2.40;;;14.30;99.90;;;;;;4989485;28;20238;-72
2023/03/24 05:14:08;;;;;;;2.90;2.60;;;14.40;99.90;;;;;;4990272;28;20439;-72
2023/03/24 05:16:34;;;;;;;2.33;1.83;;;14.40;99.90;;;;;;4991210;28;20449;-72
2023/03/24 05:19:00;;;;;;;3.03;2.60;;;14.40;99.90;;;;;;4985543;28;20289;-72
2023/03/24 05:21:26;;;;;;;2.70;2.50;;;14.50;99.90;;;;;;4989421;28;20568;-72
2023/03/24 05:23:52;;;;;;;3.07;2.30;;;14.50;99.90;;;;;;4992305;28;20437;-72
2023/03/24 05:26:17;;;;;;;4.97;3.00;;;14.40;99.90;;;;;;4984966;28;20184;-72
2023/03/24 05:28:43;;;;;;;3.57;2.70;;;14.30;99.90;;;;;;4984044;28;20176;-72
2023/03/24 05:31:09;;;;;;;3.03;2.57;;;14.10;99.90;;;;;;4986170;28;20183;-72
2023/03/24 05:33:34;;;;;;;4.27;3.40;;;13.90;99.90;;;;;;4985234;28;20199;-72
2023/03/24 05:36:00;;;;;;;3.33;3.03;;;13.60;99.90;;;;;;4986745;28;20708;-72
2023/03/24 05:38:25;;;;;;;3.80;3.50;;;13.40;99.90;;;;;;4986376;28;20669;-72
2023/03/24 05:40:54;;;;;;;4.67;4.10;;;13.20;99.90;;;;;;4985353;28;20175;-72
2023/03/24 05:43:20;;;;;;;3.53;3.30;;;13.00;99.90;;;;;;4990700;28;20261;-72
2023/03/24 05:45:45;;;;;;;3.93;3.37;;;13.00;99.90;;;;;;4987077;28;20938;-72
2023/03/24 05:48:11;;;;;;;4.90;4.20;;;12.90;99.90;;;;;;4985289;28;20559;-72
2023/03/24 05:50:36;;;;;;;3.63;3.43;;;12.90;99.90;;;;;;4987312;28;20176;-72
2023/03/24 05:53:02;;;;;;;3.93;3.17;;;12.70;99.90;;;;;;4989492;28;20215;-72
2023/03/24 05:55:29;;;;;;;3.07;2.80;;;12.70;99.90;;;;;;4988786;28;20715;-72
2023/03/24 05:57:54;;;;;;;4.13;3.73;;;12.70;99.90;;;;;;4992289;28;20175;-72
2023/03/24 06:00:22;;;;;;;4.20;3.80;;;12.70;99.90;;;;;;4984121;28;20470;-72
2023/03/24 06:02:48;;;;;;;4.13;3.80;;;12.60;99.90;;;;;;4985581;28;20198;-72
2023/03/24 06:05:13;;;;;;;4.07;3.77;;;12.60;99.90;;;;;;4989032;28;20462;-72
2023/03/24 06:07:41;;;;;;;4.40;3.73;;;12.50;99.90;;;;;;4985729;28;20525;-72
2023/03/24 06:10:10;;;;;;;4.30;3.90;;;12.50;99.90;;;;;;4982873;28;20544;-71
2023/03/24 06:12:36;;;;;;;5.97;4.07;;;12.50;99.90;;;;;;4987964;28;20833;-72
2023/03/24 06:15:02;;;;;;;5.10;3.77;;;12.50;99.90;;;;;;4994518;28;20450;-71
2023/03/24 06:17:29;;;;;;;4.10;3.80;;;12.50;99.90;;;;;;4992114;28;20441;-71
2023/03/24 06:20:01;;;;;;;5.20;4.50;;;12.50;99.90;;;;;;4991988;28;20470;-72
2023/03/24 06:22:28;;;;;;;5.37;4.87;;;12.50;99.90;;;;;;4990009;28;20542;-72
2023/03/24 06:24:55;;;;;;;4.77;4.37;;;12.50;99.90;;;;;;4992411;28;20451;-72
2023/03/24 06:27:24;;;;;;;3.70;3.40;;;12.50;99.90;;;;;;4991359;28;20514;-72
2023/03/24 06:29:52;;;;;;;4.27;3.97;;;12.50;99.90;;;;;;4991772;28;20446;-72
2023/03/24 06:32:19;;;;;;;4.00;3.60;;;12.50;99.90;;;;;;4991778;28;20558;-72
2023/03/24 06:34:44;;;;;;;4.10;3.80;;;12.50;99.90;;;;;;4991061;28;20522;-72
2023/03/24 06:37:10;;;;;;;3.93;3.47;;;12.50;99.90;;;;;;4992573;28;20462;-72
2023/03/24 06:39:35;;;;;;;4.73;4.33;;;12.50;99.90;;;;;;4991970;28;20285;-72
2023/03/24 06:42:02;;;;;;;5.03;4.60;;;12.50;99.90;;;;;;4989814;28;20206;-72
2023/03/24 06:44:27;;;;;;;6.83;4.10;;;12.60;99.90;;;;;;4984745;28;20263;-72
2023/03/24 06:46:53;;;;;;;8.00;5.30;;;12.60;99.90;;;;;;4985372;28;20585;-72
2023/03/24 06:49:19;;;;;;;7.27;4.07;;;12.60;99.90;;;;;;4985131;28;21997;-72
2023/03/24 06:51:45;;;;;;;4.63;4.07;;;12.70;99.90;;;;;;4984027;28;20222;-72
2023/03/24 06:54:10;;;;;;;5.40;4.10;;;12.70;99.90;;;;;;4984024;28;20246;-72
2023/03/24 06:56:36;;;;;;;4.50;4.10;;;12.70;99.90;;;;;;4985451;28;20837;-72
2023/03/24 06:59:01;;;;;;;5.70;4.00;;;12.70;99.90;;;;;;4983049;28;20203;-72
2023/03/24 07:01:27;;;;;;;4.70;4.00;;;12.70;99.90;;;;;;4986140;28;20199;-72
2023/03/24 07:03:53;;;;;;;4.50;4.10;;;12.70;99.90;;;;;;4988028;28;20259;-72
2023/03/24 07:06:19;;;;;;;4.87;4.37;;;12.70;99.90;;;;;;4984921;28;20184;-72
2023/03/24 07:08:45;;;;;;;5.40;4.30;;;12.60;99.90;;;;;;4983041;28;20215;-71
2023/03/24 07:11:11;;;;;;;5.00;4.50;;;12.60;99.90;;;;;;4991587;28;20521;-71
2023/03/24 07:13:37;;;;;;;4.27;3.97;;;12.60;99.90;;;;;;4990724;28;20194;-72
2023/03/24 07:16:02;;;;;;;6.30;5.20;;;12.60;99.90;;;;;;4991301;28;20447;-72
2023/03/24 07:18:28;;;;;;;5.83;5.00;;;12.50;99.90;;;;;;4987782;28;20470;-72
2023/03/24 07:20:53;;;;;;;11.77;5.40;;;12.40;99.90;;;;;;4990119;28;20208;-73
2023/03/24 07:23:20;;;;;;;6.07;5.50;;;12.80;99.90;;;;;;4991923;28;20568;-73
2023/03/24 07:25:45;;;;;;;8.07;5.80;;;12.30;99.90;;;;;;4986754;28;20309;-74
2023/03/24 07:28:11;;;;;;;6.90;6.30;;;12.20;99.90;;;;;;4987480;28;20473;-75
2023/03/24 07:30:36;;;;;;;6.13;5.53;;;12.20;99.90;;;;;;4989819;28;20183;-75
2023/03/24 07:33:04;;;;;;;20.47;6.00;;;12.20;99.90;;;;;;4989091;28;20207;-75
2023/03/24 07:35:30;;;;;;;7.03;5.97;;;12.10;99.90;;;;;;4988407;28;20566;-75
2023/03/24 07:38:00;;;;;;;6.00;4.87;;;12.10;99.90;;;;;;4989073;28;20431;-74
2023/03/24 07:40:25;;;;;;;7.37;5.37;;;12.10;99.90;;;;;;4984495;28;20254;-71
2023/03/24 07:42:51;;;;;;;8.07;6.53;;;12.10;99.90;;;;;;4983650;28;20463;-73
2023/03/24 07:45:17;;;;;;;8.33;7.00;;;12.00;99.90;;;;;;4989427;28;20183;-72
2023/03/24 07:47:44;;;;;;;8.60;6.00;;;12.00;99.90;;;;;;4989989;28;20566;-72
2023/03/24 07:50:10;;;;;;;8.67;5.87;;;12.00;99.90;;;;;;4990802;28;20282;-73
2023/03/24 07:52:41;;;;;;;9.30;6.10;;;12.00;99.90;;;;;;4986857;28;20481;-74
2023/03/24 07:55:10;;;;;;;7.77;7.03;;;12.00;99.90;;;;;;4988260;28;20443;-73
2023/03/24 07:57:37;;;;;;;10.23;8.27;;;12.00;99.90;;;;;;4984131;28;20457;-72
2023/03/24 08:00:19;;;;;;;7.17;6.47;;;12.00;99.90;;;;;;4989803;28;20462;-73
2023/03/24 08:02:47;;;;;;;7.40;6.57;;;12.00;99.90;;;;;;4985129;28;20967;-72
2023/03/24 08:05:14;;;;;;;8.40;6.60;;;12.10;99.90;;;;;;4989758;28;20964;-73
2023/03/24 08:07:43;;;;;;;7.63;5.90;;;12.10;99.90;;;;;;4990517;28;20433;-73
2023/03/24 08:10:11;;;;;;;9.00;7.10;;;12.10;99.90;;;;;;4988701;28;20446;-73
2023/03/24 08:12:37;;;;;;;8.37;7.50;;;12.10;99.90;;;;;;4985433;28;20461;-73
2023/03/24 08:15:04;;;;;;;9.00;7.20;;;12.10;99.90;;;;;;4991422;28;20438;-73
2023/03/24 08:17:29;;;;;;;7.73;6.90;;;12.20;99.90;;;;;;4985702;28;20234;-73
2023/03/24 08:19:55;;;;;;;10.97;7.20;;;12.20;99.90;;;;;;4988075;28;20501;-73
2023/03/24 08:22:21;;;;;;;8.73;6.63;;;12.20;99.90;;;;;;4989269;28;20208;-73
2023/03/24 08:24:46;;;;;;;8.10;7.30;;;12.20;99.90;;;;;;4991395;28;20180;-73
2023/03/24 08:27:12;;;;;;;7.43;6.47;;;12.30;99.90;;;;;;4990775;28;20186;-73
2023/03/24 08:29:37;;;;;;;7.57;6.80;;;12.30;99.90;;;;;;4989259;28;21750;-72
2023/03/24 08:32:04;;;;;;;8.60;6.33;;;12.30;99.90;;;;;;4991136;28;20272;-72
2023/03/24 08:34:29;;;;;;;9.23;6.07;;;12.20;99.90;;;;;;4993349;28;20232;-72
2023/03/24 08:36:55;;;;;;;7.20;6.50;;;12.30;99.90;;;;;;5001161;28;20475;-72
2023/03/24 08:39:20;;;;;;;6.60;6.00;;;12.30;99.90;;;;;;4992864;28;20211;-72
2023/03/24 08:41:48;;;;;;;7.87;6.77;;;12.20;99.90;;;;;;4994068;28;20211;-72
2023/03/24 08:44:14;;;;;;;6.23;5.63;;;12.20;99.90;;;;;;4994599;28;20183;-72
2023/03/24 08:46:40;;;;;;;7.03;6.43;;;12.30;99.90;;;;;;4995126;28;20967;-72
2023/03/24 08:49:05;;;;;;;6.73;6.23;;;12.30;99.90;;;;;;4994612;28;20183;-72
2023/03/24 08:51:31;;;;;;;6.87;6.30;;;12.30;99.90;;;;;;4995038;28;20215;-72
2023/03/24 08:53:57;;;;;;;6.97;6.37;;;12.30;99.90;;;;;;4975866;28;20195;-72
2023/03/24 08:56:24;;;;;;;6.93;6.23;;;12.40;99.90;;;;;;4979615;28;20449;-73
2023/03/24 08:58:52;;;;;;;8.20;7.50;;;12.50;99.90;;;;;;4993189;28;20611;-73
2023/03/24 09:01:19;;;;;;;6.10;5.50;;;12.50;99.90;;;;;;4994917;28;20484;-73
2023/03/24 09:03:45;;;;;;;6.00;5.50;;;12.60;99.90;;;;;;4995090;28;20426;-73
2023/03/24 09:06:11;;;;;;;5.07;4.70;;;12.70;99.90;;;;;;4995284;28;20799;-73
2023/03/24 09:08:36;;;;;;;5.20;4.80;;;12.70;99.90;;;;;;4994256;28;20439;-73
2023/03/24 09:11:03;;;;;;;4.63;4.33;;;12.80;99.90;;;;;;4993064;28;20242;-73
2023/03/24 09:13:29;;;;;;;8.47;6.20;;;12.80;99.90;;;;;;4991003;28;20501;-73
2023/03/24 09:15:59;;;;;;;12.23;4.67;;;12.80;99.90;;;;;;4990210;28;20442;-73
2023/03/24 09:18:25;;;;;;;4.53;4.13;;;12.80;99.90;;;;;;4991350;28;20263;-72
2023/03/24 09:20:51;;;;;;;3.90;3.60;;;13.00;99.90;;;;;;4992022;28;20522;-72
2023/03/24 09:23:17;;;;;;;4.17;3.77;;;13.10;99.90;;;;;;4992460;28;20619;-72
2023/03/24 09:25:43;;;;;;;4.30;3.73;;;13.30;99.90;;;;;;4991128;28;20445;-73
2023/03/24 09:28:09;;;;;;;4.17;3.87;;;13.30;99.90;;;;;;4990174;28;20470;-72
2023/03/24 09:30:35;;;;;;;3.90;3.60;;;13.40;99.90;;;;;;4992221;28;20493;-73
2023/03/24 09:33:00;;;;;;;6.90;3.87;;;13.50;99.90;;;;;;4988026;28;20204;-72
2023/03/24 09:35:26;;;;;;;4.60;3.63;;;13.60;99.90;;;;;;4992677;28;20247;-72
2023/03/24 09:37:53;;;;;;;3.63;3.33;;;13.80;99.90;;;;;;4992078;28;20314;-73
2023/03/24 09:40:28;;;;;;;3.87;3.67;;;14.00;99.90;;;;;;4990133;28;20478;-73
2023/03/24 09:43:01;;;;;;;3.37;3.07;;;14.30;99.90;;;;;;4990278;28;20470;-71
2023/03/24 09:45:31;;;;;;;4.10;3.70;;;14.80;99.90;;;;;;4991780;28;20439;-72
2023/03/24 09:48:01;;;;;;;3.50;3.20;;;15.00;99.90;;;;;;4991533;28;20439;-72
2023/03/24 09:50:52;;;;;;;3.20;2.60;;;15.20;99.90;;;;;;4989178;28;20449;-72
2023/03/24 09:53:38;;;;;;;3.33;3.10;;;15.30;99.90;;;;;;4990624;28;20489;-71
2023/03/24 09:56:16;;;;;;;4.10;3.70;;;15.10;99.90;;;;;;4989839;28;20813;-72
2023/03/24 09:58:44;;;;;;;5.30;3.53;;;14.90;99.90;;;;;;4992333;28;20473;-72
2023/03/24 10:01:13;;;;;;;4.37;3.97;;;15.00;99.90;;;;;;4991819;28;20438;-71
2023/03/24 10:03:39;;;;;;;4.00;3.70;;;15.70;99.90;;;;;;4991755;28;20435;-71
2023/03/24 10:06:14;;;;;;;3.57;3.27;;;16.30;99.90;;;;;;4992078;28;20521;-71
2023/03/24 10:08:50;;;;;;;3.23;3.03;;;17.00;99.90;;;;;;4990779;28;20946;-72
2023/03/24 10:11:36;;;;;;;3.40;3.10;;;17.60;99.90;;;;;;4991512;28;20866;-71
2023/03/24 10:14:43;;;;;;;3.30;2.77;;;17.60;99.90;;;;;;4991623;28;20434;-71
2023/03/24 10:17:21;;;;;;;2.90;2.70;;;17.60;99.90;;;;;;4993521;28;20465;-72
2023/03/24 10:19:51;;;;;;;3.00;2.63;;;17.10;99.90;;;;;;4990925;28;21161;-72
2023/03/24 10:22:49;;;;;;;3.17;2.87;;;16.50;99.90;;;;;;4990106;28;20472;-71
2023/03/24 10:25:32;;;;;;;3.03;2.83;;;16.60;99.90;;;;;;4982554;28;20536;-71
2023/03/24 10:28:08;;;;;;;3.00;2.63;;;16.60;99.90;;;;;;4991970;28;20429;-71
2023/03/24 10:30:39;;;;;;;2.50;2.03;;;16.70;99.90;;;;;;4984471;28;20443;-72
2023/03/24 10:33:04;;;;;;;2.70;2.50;;;16.50;99.90;;;;;;4992465;28;20458;-72
2023/03/24 10:35:38;;;;;;;3.43;1.90;;;16.50;99.90;;;;;;4991507;28;20966;-72
2023/03/24 10:38:16;;;;;;;2.50;2.30;;;16.50;99.90;;;;;;4989301;28;20338;-72
2023/03/24 10:40:42;;;;;;;2.47;2.37;;;16.40;99.90;;;;;;4986418;28;20500;-72
2023/03/24 10:43:08;;;;;;;2.10;2.00;;;16.50;99.90;;;;;;4991471;28;20466;-72
2023/03/24 10:45:36;;;;;;;1.80;1.70;;;16.50;99.90;;;;;;4992588;28;20928;-72
2023/03/24 10:48:03;;;;;;;2.13;2.03;;;16.60;99.90;;;;;;4991932;28;20190;-72
2023/03/24 10:50:31;;;;;;;2.10;1.97;;;17.00;99.90;;;;;;4989555;28;20434;-71
2023/03/24 10:52:57;;;;;;;1.80;1.70;;;17.10;99.90;;;;;;4990633;28;20474;-71
2023/03/24 10:55:30;;;;;;;3.00;1.90;;;17.10;99.90;;;;;;4991272;28;20824;-72
2023/03/24 10:57:58;;;;;;;1.57;1.47;;;16.90;99.90;;;;;;4991136;28;20497;-72
2023/03/24 11:00:31;;;;;;;3.17;2.87;;;16.60;99.90;;;;;;4989625;28;20470;-73
2023/03/24 11:03:00;;;;;;;3.07;2.30;;;16.50;99.90;;;;;;4986085;28;20470;-72
2023/03/24 11:05:33;;;;;;;2.27;2.17;;;16.30;99.90;;;;;;4986989;28;20852;-71
2023/03/24 11:08:18;;;;;;;1.97;1.87;;;16.40;99.90;;;;;;4983256;28;20442;-75
2023/03/24 11:10:44;;;;;;;2.20;2.00;;;16.30;99.90;;;;;;4987819;28;20438;-74
2023/03/24 11:13:27;;;;;;;2.97;1.83;;;16.60;99.90;;;;;;4989446;28;20470;-70
2023/03/24 11:16:13;;;;;;;2.67;2.10;;;17.60;99.90;;;;;;4984717;28;20183;-71
2023/03/24 11:18:53;;;;;;;4.63;1.90;;;18.00;99.90;;;;;;4989228;28;20608;-70
2023/03/24 11:21:19;;;;;;;1.67;1.57;;;18.10;99.90;;;;;;4989493;28;20524;-68
2023/03/24 11:23:45;;;;;;;1.80;1.60;;;17.70;99.90;;;;;;4988514;28;20438;-69
2023/03/24 11:26:18;;;;;;;1.83;1.73;;;17.70;99.90;;;;;;4987079;28;20184;-69
2023/03/24 11:28:51;;;;;;;2.00;1.80;;;18.10;99.90;;;;;;4986969;28;20198;-68
2023/03/24 11:31:29;;;;;;;2.57;1.60;;;17.30;99.90;;;;;;4988152;28;20439;-70
2023/03/24 11:34:02;;;;;;;1.83;1.73;;;17.10;99.90;;;;;;4986484;28;20438;-69
2023/03/24 11:36:33;;;;;;;2.07;1.97;;;17.20;99.90;;;;;;4983637;28;20490;-68
2023/03/24 11:39:00;;;;;;;1.50;1.40;;;17.10;99.90;;;;;;4994095;28;20509;-68
2023/03/24 11:41:27;;;;;;;2.30;2.10;;;17.40;99.90;;;;;;4989509;28;20541;-68
2023/03/24 11:44:21;;;;;;;4.43;1.73;;;17.20;99.90;;;;;;4990428;28;20462;-69
2023/03/24 11:46:51;;;;;;;2.23;2.03;;;16.90;99.90;;;;;;4983380;28;20458;-69
2023/03/24 11:49:20;;;;;;;1.80;1.70;;;16.70;99.90;;;;;;4988626;28;20969;-68
2023/03/24 11:51:51;;;;;;;1.27;1.23;;;16.60;99.90;;;;;;4988443;28;20474;-69
2023/03/24 11:54:19;;;;;;;1.47;1.37;;;16.70;99.90;;;;;;4989006;28;20440;-68
2023/03/24 11:56:52;;;;;;;1.80;1.70;;;16.80;99.90;;;;;;4986031;28;20434;-69
2023/03/24 11:59:46;;;;;;;1.33;1.23;;;17.00;99.90;;;;;;4987923;28;20815;-68
2023/03/24 12:03:05;;;;;;;1.60;1.50;;;17.10;99.90;;;;;;4995670;28;20511;-68
2023/03/24 12:05:41;;;;;;;1.33;1.23;;;16.70;99.90;;;;;;4976938;28;20434;-69
2023/03/24 12:08:27;;;;;;;1.50;1.40;;;16.40;99.90;;;;;;4984795;28;20435;-68
2023/03/24 12:11:15;;;;;;;1.20;1.10;;;16.30;99.90;;;;;;4986717;28;20886;-68
2023/03/24 12:13:50;;;;;;;1.43;1.27;;;16.30;99.90;;;;;;4979887;28;20443;-69
2023/03/24 12:16:33;;;;;;;1.47;1.20;;;16.40;99.90;;;;;;4980715;28;20435;-69
2023/03/24 12:19:45;;;;;;;2.10;1.03;;;16.40;99.90;;;;;;4981504;28;20466;-69
2023/03/24 12:22:58;;;;;;;1.93;1.60;;;16.50;99.90;;;;;;4976518;28;20554;-69
2023/03/24 12:25:55;;;;;;;0.90;0.90;;;16.80;99.90;;;;;;4987259;28;20793;-69
2023/03/24 12:28:51;;;;;;;1.00;1.00;;;16.70;99.90;;;;;;4986230;28;20781;-68
2023/03/24 12:31:41;;;;;;;1.23;1.13;;;16.80;99.90;;;;;;4992970;28;20466;-69
2023/03/24 12:34:35;;;;;;;1.97;0.93;;;16.90;99.90;;;;;;4993599;28;20438;-69
2023/03/24 12:37:24;;;;;;;13.10;1.40;;;16.90;99.90;;;;;;4991823;28;20430;-69
2023/03/24 12:40:20;;;;;;;0.83;0.83;;;16.80;99.90;;;;;;4986035;28;20474;-69
2023/03/24 12:42:46;;;;;;;1.83;1.43;;;16.60;99.90;;;;;;4989770;28;20460;-70
2023/03/24 12:45:22;;;;;;;2.00;1.13;;;16.30;99.90;;;;;;4991838;28;20427;-70
2023/03/24 12:48:18;;;;;;;1.40;1.30;;;16.20;99.90;;;;;;4988186;28;20425;-69
2023/03/24 12:50:48;;;;;;;1.20;1.10;;;16.30;99.90;;;;;;4992474;28;20434;-69
2023/03/24 12:53:40;;;;;;;1.60;1.20;;;16.10;99.90;;;;;;4993403;28;20477;-69
2023/03/24 12:56:13;;;;;;;1.07;1.07;;;16.30;99.90;;;;;;4990549;28;20507;-69
2023/03/24 12:58:54;;;;;;;2.30;1.30;;;16.20;99.90;;;;;;4991781;28;20552;-69
2023/03/24 13:01:40;;;;;;;1.53;1.43;;;16.10;99.90;;;;;;4989527;28;20436;-69
2023/03/24 13:04:28;;;;;;;1.33;1.20;;;16.10;99.90;;;;;;4992551;28;20957;-69
2023/03/24 13:07:02;;;;;;;1.43;1.33;;;16.20;99.90;;;;;;4988411;28;20434;-69
2023/03/24 13:09:58;;;;;;;1.23;1.13;;;16.30;99.90;;;;;;4991361;28;20476;-69
2023/03/24 13:12:44;;;;;;;1.10;1.10;;;16.40;99.90;;;;;;4991625;28;20458;-69